createdAt,value
2019-01-10T00:00:48.886Z,95.70
2019-01-10T00:01:54.663Z,95.70
2019-01-10T00:03:00.382Z,95.50
2019-01-10T00:04:06.795Z,95.50
2019-01-10T00:05:13.461Z,95.60
2019-01-10T00:06:19.328Z,95.70
2019-01-10T00:07:26.437Z,95.70
2019-01-10T00:08:32.289Z,95.60
2019-01-10T00:09:38.129Z,95.70
2019-01-10T00:10:43.968Z,95.50
2019-01-10T00:11:49.858Z,95.50
2019-01-10T00:12:57.003Z,95.40
2019-01-10T00:14:02.929Z,94.80
2019-01-10T00:15:12.161Z,94.90
2019-01-10T00:16:17.923Z,94.90
2019-01-10T00:17:23.779Z,94.90
2019-01-10T00:18:29.678Z,95.00
2019-01-10T00:19:35.541Z,95.00
2019-01-10T00:20:41.337Z,94.60
2019-01-10T00:21:47.294Z,95.00
2019-01-10T00:22:53.164Z,95.40
2019-01-10T00:23:59.042Z,95.70
2019-01-10T00:25:05.837Z,95.60
2019-01-10T00:26:15.886Z,95.50
2019-01-10T00:27:21.716Z,95.30
2019-01-10T00:28:27.635Z,95.20
2019-01-10T00:29:33.478Z,95.10
2019-01-10T00:30:39.336Z,95.30
2019-01-10T00:31:46.418Z,95.30
2019-01-10T00:32:52.258Z,95.30
2019-01-10T00:33:58.234Z,95.20
2019-01-10T00:35:04.722Z,95.20
2019-01-10T00:36:10.724Z,95.40
2019-01-10T00:37:17.720Z,95.60
2019-01-10T00:38:23.504Z,95.40
2019-01-10T00:39:30.645Z,95.50
2019-01-10T00:40:36.445Z,95.70
2019-01-10T00:41:42.289Z,95.80
2019-01-10T00:42:49.532Z,96.00
2019-01-10T00:43:55.953Z,95.60
2019-01-10T00:45:01.871Z,95.40
2019-01-10T00:46:07.951Z,95.40
2019-01-10T00:47:13.828Z,95.60
2019-01-10T00:48:19.685Z,95.50
2019-01-10T00:49:25.670Z,95.40
2019-01-10T00:50:31.549Z,95.50
2019-01-10T00:51:37.445Z,96.00
2019-01-10T00:52:43.217Z,95.70
2019-01-10T00:53:49.050Z,95.80
2019-01-10T00:54:56.048Z,96.00
2019-01-10T00:56:01.921Z,96.00
2019-01-10T00:57:07.916Z,95.90
2019-01-10T00:58:13.695Z,95.80
2019-01-10T00:59:19.599Z,95.90
2019-01-10T01:00:27.747Z,95.80
2019-01-10T01:01:33.678Z,95.70
2019-01-10T01:02:39.649Z,95.90
2019-01-10T01:03:45.477Z,95.80
2019-01-10T01:04:51.312Z,96.00
2019-01-10T01:05:57.119Z,96.10
2019-01-10T01:07:03.018Z,96.10
2019-01-10T01:08:08.956Z,96.00
2019-01-10T01:09:15.198Z,96.20
2019-01-10T01:10:23.139Z,96.00
2019-01-10T01:11:29.000Z,95.90
2019-01-10T01:12:34.819Z,96.20
2019-01-10T01:13:40.651Z,96.30
2019-01-10T01:14:46.438Z,96.30
2019-01-10T01:15:53.678Z,96.50
2019-01-10T01:16:59.459Z,96.70
2019-01-10T01:18:05.256Z,96.50
2019-01-10T01:19:11.054Z,96.40
2019-01-10T01:20:19.874Z,96.80
2019-01-10T01:21:27.069Z,96.60
2019-01-10T01:22:32.871Z,96.60
2019-01-10T01:23:38.717Z,96.50
2019-01-10T01:24:44.510Z,96.60
2019-01-10T01:25:50.302Z,96.70
2019-01-10T01:26:56.099Z,96.60
2019-01-10T01:28:01.910Z,96.00
2019-01-10T01:29:07.729Z,96.20
2019-01-10T01:30:16.022Z,96.20
2019-01-10T01:31:21.795Z,95.90
2019-01-10T01:32:27.587Z,95.90
2019-01-10T01:33:33.470Z,95.80
2019-01-10T01:34:39.406Z,96.00
2019-01-10T01:35:45.241Z,95.80
2019-01-10T01:36:51.058Z,95.90
2019-01-10T01:37:56.902Z,96.00
2019-01-10T01:39:02.768Z,96.10
2019-01-10T01:40:10.420Z,96.20
2019-01-10T01:41:16.268Z,96.00
2019-01-10T01:42:23.563Z,95.90
2019-01-10T01:43:29.705Z,96.00
2019-01-10T01:44:35.585Z,96.00
2019-01-10T01:45:41.441Z,96.00
2019-01-10T01:46:47.315Z,96.00
2019-01-10T01:47:53.216Z,96.00
2019-01-10T01:48:59.078Z,96.10
2019-01-10T01:50:06.211Z,96.30
2019-01-10T01:51:13.161Z,96.50
2019-01-10T01:52:19.031Z,96.40
2019-01-10T01:53:24.885Z,96.20
2019-01-10T01:54:30.728Z,96.10
2019-01-10T01:55:36.572Z,96.00
2019-01-10T01:56:42.454Z,96.10
2019-01-10T01:57:48.513Z,96.00
2019-01-10T01:58:54.655Z,96.00
2019-01-10T02:00:01.829Z,96.00
2019-01-10T02:01:16.817Z,95.90
2019-01-10T02:02:22.729Z,95.90
2019-01-10T02:03:28.921Z,95.80
2019-01-10T02:04:34.710Z,96.00
2019-01-10T02:05:41.452Z,95.90
2019-01-10T02:06:47.271Z,96.00
2019-01-10T02:07:53.766Z,95.90
2019-01-10T02:08:59.695Z,96.00
2019-01-10T02:10:07.835Z,96.20
2019-01-10T02:11:13.985Z,96.30
2019-01-10T02:12:19.830Z,96.30
2019-01-10T02:13:25.651Z,96.50
2019-01-10T02:14:31.438Z,96.40
2019-01-10T02:15:37.269Z,96.60
2019-01-10T02:16:43.006Z,97.10
2019-01-10T02:17:49.565Z,96.70
2019-01-10T02:18:57.042Z,96.70
2019-01-10T02:20:03.354Z,96.60
2019-01-10T02:21:09.171Z,96.50
2019-01-10T02:22:15.058Z,96.40
2019-01-10T02:23:21.067Z,96.40
2019-01-10T02:24:26.847Z,96.40
2019-01-10T02:25:32.781Z,95.80
2019-01-10T02:26:38.712Z,95.90
2019-01-10T02:27:44.539Z,96.30
2019-01-10T02:28:50.446Z,96.30
2019-01-10T02:29:56.241Z,96.00
2019-01-10T02:31:02.172Z,96.10
2019-01-10T02:32:08.072Z,96.40
2019-01-10T02:33:13.978Z,96.30
2019-01-10T02:34:19.848Z,96.20
2019-01-10T02:35:25.668Z,96.20
2019-01-10T02:36:31.421Z,96.40
2019-01-10T02:37:37.312Z,96.40
2019-01-10T02:38:43.157Z,96.20
2019-01-10T02:39:49.050Z,96.20
2019-01-10T02:40:55.432Z,96.10
2019-01-10T02:42:02.421Z,96.10
2019-01-10T02:43:09.501Z,95.90
2019-01-10T02:44:15.718Z,96.20
2019-01-10T02:45:22.080Z,96.20
2019-01-10T02:46:27.863Z,96.20
2019-01-10T02:47:33.581Z,96.00
2019-01-10T02:48:39.459Z,95.90
2019-01-10T02:49:45.305Z,95.90
2019-01-10T02:50:51.250Z,96.10
2019-01-10T02:51:57.077Z,96.10
2019-01-10T02:53:02.898Z,96.00
2019-01-10T02:54:08.629Z,95.70
2019-01-10T02:55:14.690Z,95.80
2019-01-10T02:56:20.550Z,96.10
2019-01-10T02:57:26.359Z,95.90
2019-01-10T02:58:32.133Z,96.10
2019-01-10T02:59:37.943Z,96.20
2019-01-10T03:00:43.930Z,96.10
2019-01-10T03:01:50.088Z,96.10
2019-01-10T03:02:55.890Z,95.90
2019-01-10T03:04:01.731Z,95.90
2019-01-10T03:05:07.721Z,95.90
2019-01-10T03:06:13.558Z,95.90
2019-01-10T03:07:19.408Z,95.70
2019-01-10T03:08:25.258Z,95.70
2019-01-10T03:09:31.029Z,95.80
2019-01-10T03:10:36.909Z,95.90
2019-01-10T03:11:43.839Z,96.00
2019-01-10T03:12:49.818Z,96.20
2019-01-10T03:13:56.648Z,96.40
2019-01-10T03:15:02.378Z,96.10
2019-01-10T03:16:08.689Z,96.10
2019-01-10T03:17:14.439Z,96.30
2019-01-10T03:18:20.265Z,96.40
2019-01-10T03:19:26.141Z,96.10
2019-01-10T03:20:33.117Z,95.90
2019-01-10T03:21:38.990Z,95.70
2019-01-10T03:22:44.782Z,96.20
2019-01-10T03:24:03.793Z,95.80
2019-01-10T03:25:10.640Z,95.80
2019-01-10T03:26:16.449Z,95.90
2019-01-10T03:27:22.438Z,96.00
2019-01-10T03:28:28.247Z,96.00
2019-01-10T03:29:34.148Z,95.90
2019-01-10T03:30:39.930Z,96.00
2019-01-10T03:31:46.810Z,95.80
2019-01-10T03:32:52.622Z,96.10
2019-01-10T03:33:58.475Z,96.20
2019-01-10T03:35:05.098Z,96.30
2019-01-10T03:36:11.048Z,96.30
2019-01-10T03:37:16.855Z,96.40
2019-01-10T03:38:22.608Z,96.30
2019-01-10T03:39:28.383Z,96.30
2019-01-10T03:40:35.158Z,96.30
2019-01-10T03:41:40.930Z,96.40
2019-01-10T03:42:46.789Z,96.30
2019-01-10T03:43:55.169Z,96.30
2019-01-10T03:45:00.900Z,96.10
2019-01-10T03:46:06.806Z,96.20
2019-01-10T03:47:13.448Z,96.20
2019-01-10T03:48:19.271Z,96.40
2019-01-10T03:49:25.101Z,96.30
2019-01-10T03:50:30.917Z,96.30
2019-01-10T03:51:36.751Z,96.30
2019-01-10T03:52:42.621Z,96.30
2019-01-10T03:53:48.426Z,96.30
2019-01-10T03:54:54.553Z,96.30
2019-01-10T03:56:00.313Z,96.50
2019-01-10T03:57:06.120Z,96.30
2019-01-10T03:58:11.982Z,96.20
2019-01-10T03:59:17.869Z,96.30
2019-01-10T04:00:26.277Z,96.40
2019-01-10T04:01:32.139Z,96.50
2019-01-10T04:02:37.893Z,96.50
2019-01-10T04:03:43.688Z,96.20
2019-01-10T04:04:49.949Z,96.20
2019-01-10T04:05:55.804Z,96.10
2019-01-10T04:07:03.707Z,96.20
2019-01-10T04:08:09.523Z,96.30
2019-01-10T04:09:15.268Z,96.50
2019-01-10T04:10:21.251Z,96.40
2019-01-10T04:11:26.998Z,96.40
2019-01-10T04:12:32.794Z,96.30
2019-01-10T04:13:38.661Z,96.40
2019-01-10T04:14:44.428Z,96.70
2019-01-10T04:15:50.346Z,96.50
2019-01-10T04:16:56.139Z,96.20
2019-01-10T04:18:01.954Z,96.20
2019-01-10T04:19:07.796Z,96.00
2019-01-10T04:20:15.003Z,96.10
2019-01-10T04:21:20.832Z,95.90
2019-01-10T04:22:26.614Z,95.90
2019-01-10T04:23:32.433Z,96.00
2019-01-10T04:24:38.731Z,96.00
2019-01-10T04:25:44.594Z,96.50
2019-01-10T04:26:50.354Z,96.10
2019-01-10T04:27:56.148Z,96.20
2019-01-10T04:29:02.002Z,96.50
2019-01-10T04:30:10.432Z,96.30
2019-01-10T04:31:17.504Z,96.40
2019-01-10T04:32:23.316Z,96.00
2019-01-10T04:33:29.628Z,96.20
2019-01-10T04:34:35.939Z,96.30
2019-01-10T04:35:43.063Z,96.20
2019-01-10T04:36:52.004Z,96.30
2019-01-10T04:37:58.589Z,96.10
2019-01-10T04:39:06.092Z,96.10
2019-01-10T04:40:14.768Z,96.20
2019-01-10T04:41:20.675Z,96.10
2019-01-10T04:42:26.550Z,96.10
2019-01-10T04:43:32.515Z,95.90
2019-01-10T04:44:39.298Z,96.10
2019-01-10T04:45:45.163Z,95.90
2019-01-10T04:46:51.017Z,95.90
2019-01-10T04:47:56.855Z,96.00
2019-01-10T04:49:02.629Z,96.00
2019-01-10T04:50:09.246Z,95.90
2019-01-10T04:51:14.989Z,96.00
2019-01-10T04:52:20.898Z,96.00
2019-01-10T04:53:28.204Z,95.90
2019-01-10T04:54:38.262Z,96.10
2019-01-10T04:55:41.835Z,96.00
2019-01-10T04:56:47.703Z,96.00
2019-01-10T04:57:53.609Z,96.00
2019-01-10T04:58:59.464Z,95.90
2019-01-10T05:00:09.619Z,96.00
2019-01-10T05:01:16.678Z,96.00
2019-01-10T05:02:22.614Z,96.00
2019-01-10T05:03:28.555Z,96.20
2019-01-10T05:04:34.320Z,96.00
2019-01-10T05:05:41.202Z,95.80
2019-01-10T05:06:48.133Z,95.80
2019-01-10T05:07:54.014Z,96.00
2019-01-10T05:08:59.936Z,96.10
2019-01-10T05:10:07.134Z,96.10
2019-01-10T05:11:12.880Z,96.00
2019-01-10T05:12:18.597Z,96.10
2019-01-10T05:13:24.338Z,95.90
2019-01-10T05:14:30.148Z,95.80
2019-01-10T05:15:35.929Z,95.70
2019-01-10T05:16:41.683Z,96.00
2019-01-10T05:17:47.449Z,95.80
2019-01-10T05:18:53.261Z,95.90
2019-01-10T05:19:59.470Z,95.70
2019-01-10T05:21:05.563Z,95.80
2019-01-10T05:22:11.808Z,96.00
2019-01-10T05:23:17.546Z,96.10
2019-01-10T05:24:23.299Z,96.20
2019-01-10T05:25:29.105Z,96.20
2019-01-10T05:26:34.811Z,96.10
2019-01-10T05:27:40.966Z,96.40
2019-01-10T05:28:46.735Z,96.30
2019-01-10T05:29:52.538Z,96.60
2019-01-10T05:30:58.390Z,96.60
2019-01-10T05:32:04.189Z,96.50
2019-01-10T05:33:10.012Z,96.60
2019-01-10T05:34:15.818Z,96.70
2019-01-10T05:35:21.721Z,96.40
2019-01-10T05:36:27.536Z,96.50
2019-01-10T05:37:33.329Z,96.30
2019-01-10T05:38:39.008Z,96.20
2019-01-10T05:39:47.724Z,96.20
2019-01-10T05:40:52.238Z,96.40
2019-01-10T05:41:58.070Z,96.40
2019-01-10T05:43:03.881Z,96.30
2019-01-10T05:44:09.659Z,96.20
2019-01-10T05:45:16.150Z,95.90
2019-01-10T05:46:21.957Z,96.00
2019-01-10T05:47:27.788Z,96.10
2019-01-10T05:48:33.558Z,96.20
2019-01-10T05:49:39.272Z,96.30
2019-01-10T05:50:45.026Z,96.90
2019-01-10T05:51:51.891Z,96.50
2019-01-10T05:52:57.750Z,96.40
2019-01-10T05:54:03.569Z,96.30
2019-01-10T05:55:11.819Z,96.00
2019-01-10T05:56:17.628Z,95.70
2019-01-10T05:57:23.518Z,95.60
2019-01-10T05:58:29.422Z,95.50
2019-01-10T05:59:35.268Z,95.60
2019-01-10T06:00:41.057Z,95.50
2019-01-10T06:01:46.881Z,95.50
2019-01-10T06:02:52.720Z,95.50
2019-01-10T06:03:58.554Z,95.40
2019-01-10T06:05:04.636Z,95.50
2019-01-10T06:06:10.470Z,95.50
2019-01-10T06:07:16.303Z,95.60
2019-01-10T06:08:22.210Z,95.60
2019-01-10T06:09:27.994Z,95.80
2019-01-10T06:10:33.803Z,95.80
2019-01-10T06:11:39.640Z,95.70
2019-01-10T06:12:45.409Z,95.70
2019-01-10T06:13:52.639Z,95.80
2019-01-10T06:14:58.445Z,95.70
2019-01-10T06:16:04.363Z,95.50
2019-01-10T06:17:10.189Z,95.50
2019-01-10T06:18:16.077Z,95.50
2019-01-10T06:19:26.656Z,95.50
2019-01-10T06:20:29.375Z,95.50
2019-01-10T06:21:35.152Z,95.50
2019-01-10T06:22:40.859Z,95.40
2019-01-10T06:23:46.627Z,95.60
2019-01-10T06:24:53.407Z,95.90
2019-01-10T06:25:59.213Z,96.00
2019-01-10T06:27:05.021Z,95.80
2019-01-10T06:28:10.859Z,95.60
2019-01-10T06:29:16.598Z,96.00
2019-01-10T06:30:24.039Z,95.70
2019-01-10T06:31:29.849Z,95.70
2019-01-10T06:32:35.709Z,95.40
2019-01-10T06:33:41.559Z,95.30
2019-01-10T06:34:47.406Z,95.50
2019-01-10T06:35:55.986Z,95.20
2019-01-10T06:37:01.820Z,95.40
2019-01-10T06:38:08.077Z,95.70
2019-01-10T06:39:13.917Z,95.60
2019-01-10T06:40:21.578Z,95.60
2019-01-10T06:41:27.360Z,95.60
2019-01-10T06:42:33.182Z,95.60
2019-01-10T06:43:39.081Z,95.70
2019-01-10T06:44:45.339Z,95.70
2019-01-10T06:45:51.210Z,96.00
2019-01-10T06:46:56.952Z,95.90
2019-01-10T06:48:02.821Z,95.70
2019-01-10T06:49:08.519Z,95.70
2019-01-10T06:50:15.370Z,95.70
2019-01-10T06:51:21.159Z,95.90
2019-01-10T06:52:26.968Z,96.00
2019-01-10T06:53:32.829Z,95.80
2019-01-10T06:54:38.691Z,95.80
2019-01-10T06:55:44.512Z,95.60
2019-01-10T06:56:50.306Z,95.70
2019-01-10T06:57:56.251Z,95.70
2019-01-10T06:59:02.329Z,95.60
2019-01-10T07:00:12.514Z,95.50
2019-01-10T07:01:18.268Z,95.60
2019-01-10T07:02:24.148Z,95.70
2019-01-10T07:03:29.929Z,95.30
2019-01-10T07:04:35.882Z,95.40
2019-01-10T07:05:41.770Z,95.60
2019-01-10T07:06:47.498Z,95.50
2019-01-10T07:07:56.534Z,95.60
2019-01-10T07:09:00.718Z,95.60
2019-01-10T07:10:12.458Z,95.60
2019-01-10T07:11:18.169Z,95.60
2019-01-10T07:12:23.955Z,95.50
2019-01-10T07:13:29.699Z,95.60
2019-01-10T07:14:35.421Z,95.70
2019-01-10T07:15:41.271Z,95.80
2019-01-10T07:16:53.535Z,95.60
2019-01-10T07:17:55.013Z,95.60
2019-01-10T07:19:00.690Z,95.60
2019-01-10T07:20:07.227Z,95.80
2019-01-10T07:21:12.984Z,95.70
2019-01-10T07:22:19.669Z,95.60
2019-01-10T07:23:25.418Z,95.70
2019-01-10T07:24:31.154Z,95.70
2019-01-10T07:25:36.998Z,95.60
2019-01-10T07:26:43.125Z,95.60
2019-01-10T07:28:10.347Z,95.70
2019-01-10T07:29:16.250Z,95.70
2019-01-10T07:30:35.802Z,95.50
2019-01-10T07:31:34.855Z,95.50
2019-01-10T07:32:40.598Z,95.70
2019-01-10T07:33:46.558Z,95.60
2019-01-10T07:35:00.313Z,95.40
2019-01-10T07:36:06.150Z,95.60
2019-01-10T07:37:12.995Z,95.70
2019-01-10T07:38:19.116Z,95.60
2019-01-10T07:39:24.998Z,95.70
2019-01-10T07:40:30.797Z,95.80
2019-01-10T07:41:39.878Z,95.50
2019-01-10T07:42:45.619Z,95.50
2019-01-10T07:43:51.325Z,95.40
2019-01-10T07:45:02.645Z,95.40
2019-01-10T07:46:07.519Z,95.30
2019-01-10T07:47:14.268Z,95.20
2019-01-10T07:48:20.087Z,95.20
2019-01-10T07:49:25.901Z,95.20
2019-01-10T07:50:36.224Z,95.30
2019-01-10T07:51:48.298Z,95.30
2019-01-10T07:52:54.087Z,95.40
2019-01-10T07:53:59.827Z,95.40
2019-01-10T07:55:05.810Z,95.40
2019-01-10T07:56:11.588Z,95.50
2019-01-10T07:57:17.409Z,96.00
2019-01-10T07:58:23.228Z,95.50
2019-01-10T07:59:29.030Z,95.50
2019-01-10T08:00:34.867Z,95.70
2019-01-10T08:01:40.750Z,95.70
2019-01-10T08:02:46.610Z,95.70
2019-01-10T08:03:52.431Z,95.70
2019-01-10T08:04:58.231Z,95.50
2019-01-10T08:06:04.828Z,95.50
2019-01-10T08:07:10.687Z,95.60
2019-01-10T08:08:16.491Z,95.60
2019-01-10T08:09:22.337Z,95.70
2019-01-10T08:10:28.132Z,96.00
2019-01-10T08:11:33.993Z,96.00
2019-01-10T08:12:40.072Z,96.10
2019-01-10T08:13:45.942Z,96.20
2019-01-10T08:14:51.978Z,96.00
2019-01-10T08:15:57.757Z,95.80
2019-01-10T08:17:03.589Z,95.90
2019-01-10T08:18:09.565Z,96.00
2019-01-10T08:19:15.389Z,95.80
2019-01-10T08:20:21.196Z,96.00
2019-01-10T08:21:26.965Z,96.00
2019-01-10T08:22:32.787Z,96.20
2019-01-10T08:23:38.640Z,96.00
2019-01-10T08:24:44.421Z,95.80
2019-01-10T08:25:50.180Z,95.90
2019-01-10T08:26:55.989Z,95.70
2019-01-10T08:28:01.870Z,95.70
2019-01-10T08:29:07.679Z,95.40
2019-01-10T08:30:16.705Z,95.20
2019-01-10T08:31:22.520Z,95.20
2019-01-10T08:32:28.329Z,95.30
2019-01-10T08:33:34.108Z,95.40
2019-01-10T08:34:39.869Z,95.40
2019-01-10T08:35:45.689Z,95.40
2019-01-10T08:36:51.408Z,95.50
2019-01-10T08:37:57.473Z,95.70
2019-01-10T08:39:04.533Z,95.70
2019-01-10T08:40:10.721Z,95.50
2019-01-10T08:41:16.449Z,95.40
2019-01-10T08:42:22.201Z,95.30
2019-01-10T08:43:29.871Z,95.30
2019-01-10T08:44:35.636Z,95.30
2019-01-10T08:45:41.420Z,95.50
2019-01-10T08:46:47.748Z,95.40
2019-01-10T08:47:53.481Z,95.40
2019-01-10T08:48:59.231Z,95.40
2019-01-10T08:50:06.548Z,95.30
2019-01-10T08:51:12.416Z,95.10
2019-01-10T08:52:18.217Z,95.00
2019-01-10T08:53:24.018Z,94.80
2019-01-10T08:54:29.829Z,95.00
2019-01-10T08:55:35.662Z,95.10
2019-01-10T08:56:41.438Z,95.10
2019-01-10T08:57:47.273Z,94.90
2019-01-10T08:58:53.009Z,94.80
2019-01-10T08:59:59.258Z,94.90
2019-01-10T09:01:05.080Z,94.60
2019-01-10T09:02:11.200Z,94.60
2019-01-10T09:03:16.998Z,94.70
2019-01-10T09:04:22.740Z,95.00
2019-01-10T09:05:29.069Z,95.10
2019-01-10T09:06:34.902Z,94.80
2019-01-10T09:07:40.829Z,94.90
2019-01-10T09:08:47.009Z,94.70
2019-01-10T09:09:54.023Z,94.70
2019-01-10T09:10:59.810Z,94.70
2019-01-10T09:12:05.629Z,94.70
2019-01-10T09:13:11.448Z,94.70
2019-01-10T09:14:17.168Z,94.60
2019-01-10T09:15:25.447Z,94.50
2019-01-10T09:16:30.322Z,94.20
2019-01-10T09:17:36.057Z,94.00
2019-01-10T09:18:41.926Z,93.80
2019-01-10T09:19:47.673Z,93.50
2019-01-10T09:20:53.440Z,93.40
2019-01-10T09:21:59.158Z,93.50
2019-01-10T09:23:05.044Z,93.60
2019-01-10T09:24:11.022Z,93.90
2019-01-10T09:25:17.871Z,93.60
2019-01-10T09:26:24.230Z,93.70
2019-01-10T09:27:30.089Z,93.60
2019-01-10T09:28:35.898Z,93.50
2019-01-10T09:29:41.778Z,93.50
2019-01-10T09:30:47.539Z,93.70
2019-01-10T09:31:53.318Z,93.70
2019-01-10T09:32:59.189Z,93.60
2019-01-10T09:34:04.949Z,93.70
2019-01-10T09:35:10.970Z,93.70
2019-01-10T09:36:16.670Z,93.70
2019-01-10T09:37:22.419Z,93.40
2019-01-10T09:38:28.240Z,93.60
2019-01-10T09:39:33.998Z,93.70
2019-01-10T09:40:39.973Z,93.80
2019-01-10T09:41:45.669Z,93.90
2019-01-10T09:42:51.426Z,93.60
2019-01-10T09:43:57.237Z,93.70
2019-01-10T09:45:03.003Z,93.70
2019-01-10T09:46:08.814Z,93.90
2019-01-10T09:47:14.719Z,93.90
2019-01-10T09:48:20.502Z,94.00
2019-01-10T09:49:26.323Z,93.80
2019-01-10T09:50:32.105Z,93.70
2019-01-10T09:51:38.091Z,93.70
2019-01-10T09:52:43.928Z,93.60
2019-01-10T09:53:49.722Z,93.80
2019-01-10T09:54:55.439Z,94.00
2019-01-10T09:56:01.242Z,94.00
2019-01-10T09:57:07.218Z,94.00
2019-01-10T09:58:13.077Z,94.00
2019-01-10T09:59:18.891Z,93.80
2019-01-10T10:00:29.423Z,93.90
2019-01-10T10:01:35.280Z,93.90
2019-01-10T10:02:41.100Z,93.80
2019-01-10T10:03:47.198Z,93.60
2019-01-10T10:04:53.009Z,93.70
2019-01-10T10:06:07.361Z,93.70
2019-01-10T10:07:06.388Z,93.70
2019-01-10T10:08:12.229Z,93.70
2019-01-10T10:09:17.989Z,93.70
2019-01-10T10:10:23.802Z,93.50
2019-01-10T10:11:34.186Z,93.30
2019-01-10T10:12:37.030Z,93.40
2019-01-10T10:13:42.839Z,93.50
2019-01-10T10:14:48.588Z,93.70
2019-01-10T10:15:54.368Z,93.40
2019-01-10T10:17:00.183Z,93.40
2019-01-10T10:18:06.638Z,93.70
2019-01-10T10:19:12.428Z,93.80
2019-01-10T10:20:20.889Z,94.20
2019-01-10T10:21:26.670Z,93.80
2019-01-10T10:22:32.429Z,93.90
2019-01-10T10:23:39.206Z,94.00
2019-01-10T10:24:45.006Z,94.10
2019-01-10T10:25:52.096Z,93.90
2019-01-10T10:26:57.837Z,93.70
2019-01-10T10:28:03.580Z,93.60
2019-01-10T10:29:09.356Z,93.40
2019-01-10T10:30:17.653Z,93.40
2019-01-10T10:31:23.417Z,93.50
2019-01-10T10:32:29.162Z,93.50
2019-01-10T10:33:34.950Z,93.40
2019-01-10T10:34:40.661Z,92.90
2019-01-10T10:35:46.458Z,93.00
2019-01-10T10:36:53.562Z,92.90
2019-01-10T10:37:59.369Z,92.90
2019-01-10T10:39:08.332Z,92.90
2019-01-10T10:40:16.452Z,92.70
2019-01-10T10:41:22.313Z,92.70
2019-01-10T10:42:28.140Z,92.60
2019-01-10T10:43:33.929Z,92.60
2019-01-10T10:44:40.082Z,92.40
2019-01-10T10:45:45.887Z,92.60
2019-01-10T10:46:51.682Z,92.70
2019-01-10T10:47:59.556Z,92.90
2019-01-10T10:49:05.922Z,92.90
2019-01-10T10:50:14.892Z,92.70
2019-01-10T10:51:20.698Z,92.90
2019-01-10T10:52:26.561Z,93.00
2019-01-10T10:53:32.786Z,92.70
2019-01-10T10:54:38.527Z,92.70
2019-01-10T10:55:45.390Z,92.80
2019-01-10T10:56:51.200Z,92.50
2019-01-10T10:57:57.182Z,92.70
2019-01-10T10:59:02.958Z,92.60
2019-01-10T11:00:12.237Z,92.70
2019-01-10T11:01:18.121Z,92.70
2019-01-10T11:02:23.936Z,92.70
2019-01-10T11:03:29.945Z,92.50
2019-01-10T11:04:35.752Z,92.70
2019-01-10T11:05:41.498Z,92.40
2019-01-10T11:06:47.241Z,92.40
2019-01-10T11:07:53.031Z,92.40
2019-01-10T11:08:58.877Z,92.20
2019-01-10T11:10:05.351Z,92.50
2019-01-10T11:11:11.209Z,92.40
2019-01-10T11:12:16.972Z,92.20
2019-01-10T11:13:22.749Z,92.30
2019-01-10T11:14:28.626Z,92.20
2019-01-10T11:15:34.340Z,92.50
2019-01-10T11:16:40.058Z,92.60
2019-01-10T11:17:46.490Z,92.30
2019-01-10T11:18:52.285Z,91.90
2019-01-10T11:19:58.159Z,91.80
2019-01-10T11:21:03.946Z,91.70
2019-01-10T11:22:10.078Z,91.80
2019-01-10T11:23:16.017Z,91.80
2019-01-10T11:24:21.809Z,91.70
2019-01-10T11:25:29.010Z,91.60
2019-01-10T11:26:34.994Z,91.80
2019-01-10T11:27:40.809Z,91.90
2019-01-10T11:28:46.542Z,91.50
2019-01-10T11:29:52.391Z,91.50
2019-01-10T11:30:59.271Z,91.60
2019-01-10T11:32:12.971Z,91.50
2019-01-10T11:33:12.557Z,91.60
2019-01-10T11:34:18.417Z,91.70
2019-01-10T11:35:24.416Z,91.50
2019-01-10T11:36:30.276Z,91.50
2019-01-10T11:37:36.070Z,91.60
2019-01-10T11:38:41.851Z,91.50
2019-01-10T11:39:47.646Z,91.50
2019-01-10T11:40:53.375Z,91.70
2019-01-10T11:42:00.197Z,91.80
2019-01-10T11:43:06.037Z,91.90
2019-01-10T11:44:11.757Z,91.80
2019-01-10T11:45:19.464Z,91.90
2019-01-10T11:46:25.209Z,91.90
2019-01-10T11:47:31.062Z,91.70
2019-01-10T11:48:36.986Z,91.80
2019-01-10T11:49:42.781Z,92.00
2019-01-10T11:50:48.557Z,91.90
2019-01-10T11:51:54.302Z,91.50
2019-01-10T11:53:00.117Z,91.60
2019-01-10T11:54:06.017Z,91.20
2019-01-10T11:55:12.073Z,91.50
2019-01-10T11:56:18.280Z,91.40
2019-01-10T11:57:24.049Z,91.20
2019-01-10T11:58:29.870Z,91.30
2019-01-10T11:59:35.718Z,91.40
2019-01-10T12:00:41.548Z,91.50
2019-01-10T12:01:47.259Z,91.30
2019-01-10T12:02:53.037Z,91.20
2019-01-10T12:03:58.923Z,91.30
2019-01-10T12:05:05.328Z,91.40
2019-01-10T12:06:11.069Z,91.50
2019-01-10T12:07:16.809Z,91.10
2019-01-10T12:08:22.517Z,90.80
2019-01-10T12:09:28.328Z,91.10
2019-01-10T12:10:34.076Z,91.10
2019-01-10T12:11:39.836Z,91.20
2019-01-10T12:12:45.995Z,91.50
2019-01-10T12:13:51.797Z,91.30
2019-01-10T12:14:57.750Z,91.30
2019-01-10T12:16:03.521Z,91.40
2019-01-10T12:17:09.338Z,91.50
2019-01-10T12:18:15.069Z,91.30
2019-01-10T12:19:20.862Z,91.20
2019-01-10T12:20:26.713Z,90.90
2019-01-10T12:21:32.568Z,91.10
2019-01-10T12:22:38.443Z,91.10
2019-01-10T12:23:44.216Z,91.30
2019-01-10T12:24:49.988Z,91.30
2019-01-10T12:25:55.799Z,91.60
2019-01-10T12:27:01.559Z,91.60
2019-01-10T12:28:09.690Z,91.60
2019-01-10T12:29:15.509Z,91.30
2019-01-10T12:30:23.854Z,91.40
2019-01-10T12:31:31.927Z,91.30
2019-01-10T12:32:38.836Z,91.20
2019-01-10T12:33:45.801Z,91.10
2019-01-10T12:34:52.731Z,91.00
2019-01-10T12:35:59.612Z,91.10
2019-01-10T12:37:07.098Z,91.20
2019-01-10T12:38:13.943Z,91.40
2019-01-10T12:39:20.721Z,91.60
2019-01-10T12:40:28.593Z,91.50
2019-01-10T12:41:35.372Z,91.30
2019-01-10T12:42:42.237Z,91.50
2019-01-10T12:43:49.021Z,91.70
2019-01-10T12:44:55.767Z,91.60
2019-01-10T12:46:02.620Z,91.60
2019-01-10T12:47:09.421Z,91.50
2019-01-10T12:48:16.293Z,91.50
2019-01-10T12:49:23.097Z,91.90
2019-01-10T12:50:34.474Z,91.90
2019-01-10T12:51:42.061Z,92.40
2019-01-10T12:52:48.957Z,92.10
2019-01-10T12:53:55.904Z,92.00
2019-01-10T12:55:03.106Z,92.00
2019-01-10T12:56:10.033Z,92.10
2019-01-10T12:57:16.842Z,92.20
2019-01-10T12:58:23.755Z,92.20
2019-01-10T12:59:30.674Z,92.00
2019-01-10T13:00:37.537Z,92.20
2019-01-10T13:01:44.446Z,92.20
2019-01-10T13:02:51.302Z,92.10
2019-01-10T13:03:58.304Z,92.20
2019-01-10T13:05:05.710Z,92.20
2019-01-10T13:06:12.621Z,92.10
2019-01-10T13:07:19.516Z,92.40
2019-01-10T13:08:26.472Z,92.20
2019-01-10T13:09:33.555Z,92.10
2019-01-10T13:10:40.553Z,92.00
2019-01-10T13:11:48.436Z,92.10
2019-01-10T13:12:55.293Z,92.00
2019-01-10T13:14:05.533Z,92.30
2019-01-10T13:15:13.425Z,92.20
2019-01-10T13:16:20.194Z,92.00
2019-01-10T13:17:27.183Z,91.80
2019-01-10T13:18:34.065Z,91.60
2019-01-10T13:19:40.825Z,91.60
2019-01-10T13:20:47.813Z,91.70
2019-01-10T13:21:54.908Z,91.80
2019-01-10T13:23:02.826Z,92.00
2019-01-10T13:24:09.774Z,92.20
2019-01-10T13:25:18.158Z,92.40
2019-01-10T13:26:24.982Z,92.50
2019-01-10T13:27:32.005Z,92.30
2019-01-10T13:28:39.109Z,92.10
2019-01-10T13:29:46.063Z,92.30
2019-01-10T13:30:53.172Z,92.20
2019-01-10T13:32:00.005Z,92.20
2019-01-10T13:33:07.221Z,92.30
2019-01-10T13:34:14.176Z,92.30
2019-01-10T13:35:20.976Z,92.50
2019-01-10T13:36:27.827Z,92.60
2019-01-10T13:37:34.744Z,92.50
2019-01-10T13:38:41.637Z,92.60
2019-01-10T13:39:48.459Z,92.50
2019-01-10T13:40:55.316Z,92.60
2019-01-10T13:42:02.106Z,92.80
2019-01-10T13:43:08.959Z,92.70
2019-01-10T13:44:15.812Z,92.70
2019-01-10T13:45:23.672Z,92.80
2019-01-10T13:46:30.535Z,92.70
2019-01-10T13:47:37.391Z,92.60
2019-01-10T13:48:44.326Z,92.60
2019-01-10T13:49:51.267Z,92.60
2019-01-10T13:50:58.115Z,92.70
2019-01-10T13:52:04.904Z,92.70
2019-01-10T13:53:12.867Z,92.80
2019-01-10T13:54:19.678Z,92.80
2019-01-10T13:55:26.669Z,93.00
2019-01-10T13:56:33.701Z,93.10
2019-01-10T13:57:44.058Z,93.10
2019-01-10T13:58:50.936Z,93.10
2019-01-10T13:59:57.843Z,93.00
2019-01-10T14:01:04.937Z,92.90
2019-01-10T14:02:11.761Z,92.70
2019-01-10T14:03:18.633Z,92.60
2019-01-10T14:04:25.469Z,92.50
2019-01-10T14:05:32.772Z,92.50
2019-01-10T14:06:39.711Z,92.70
2019-01-10T14:07:47.076Z,92.60
2019-01-10T14:08:54.034Z,92.50
2019-01-10T14:10:00.796Z,92.40
2019-01-10T14:11:07.690Z,92.40
2019-01-10T14:12:17.276Z,92.60
2019-01-10T14:13:24.050Z,92.70
2019-01-10T14:14:30.904Z,92.70